sensor_id;sensor_type;location;lat;lon;timestamp;temperature;humidity
52709;DHT22;38606;52.986;6.980;2023-11-21T00:01:31;8.80;99.90
52709;DHT22;38606;52.986;6.980;2023-11-21T00:03:58;9.60;99.90
52709;DHT22;38606;52.986;6.980;2023-11-21T00:06:23;8.70;99.90
52709;DHT22;38606;52.986;6.980;2023-11-21T00:08:49;8.80;99.90
52709;DHT22;38606;52.986;6.980;2023-11-21T00:11:15;9.00;99.90
52709;DHT22;38606;52.986;6.980;2023-11-21T00:13:40;8.90;99.90
52709;DHT22;38606;52.986;6.980;2023-11-21T00:16:06;8.80;99.90
52709;DHT22;38606;52.986;6.980;2023-11-21T00:18:33;8.80;99.90
52709;DHT22;38606;52.986;6.980;2023-11-21T00:20:58;8.60;99.90
52709;DHT22;38606;52.986;6.980;2023-11-21T00:23:24;8.80;99.90
52709;DHT22;38606;52.986;6.980;2023-11-21T00:25:50;8.70;99.90
52709;DHT22;38606;52.986;6.980;2023-11-21T00:28:16;9.00;99.90
52709;DHT22;38606;52.986;6.980;2023-11-21T00:30:42;8.90;99.90
52709;DHT22;38606;52.986;6.980;2023-11-21T00:33:07;8.90;99.90
52709;DHT22;38606;52.986;6.980;2023-11-21T00:35:33;8.80;99.90
52709;DHT22;38606;52.986;6.980;2023-11-21T00:37:59;8.80;99.90
52709;DHT22;38606;52.986;6.980;2023-11-21T00:40:24;9.10;99.90
52709;DHT22;38606;52.986;6.980;2023-11-21T00:42:50;9.00;99.90
52709;DHT22;38606;52.986;6.980;2023-11-21T00:45:16;8.80;99.90
52709;DHT22;38606;52.986;6.980;2023-11-21T00:47:42;8.90;99.90
52709;DHT22;38606;52.986;6.980;2023-11-21T00:50:08;8.80;99.90
52709;DHT22;38606;52.986;6.980;2023-11-21T00:52:35;9.00;99.90
52709;DHT22;38606;52.986;6.980;2023-11-21T00:55:02;8.70;99.90
52709;DHT22;38606;52.986;6.980;2023-11-21T00:57:28;8.70;99.90
52709;DHT22;38606;52.986;6.980;2023-11-21T00:59:55;8.90;99.90
52709;DHT22;38606;52.986;6.980;2023-11-21T01:02:21;9.10;99.90
52709;DHT22;38606;52.986;6.980;2023-11-21T01:04:46;9.00;99.90
52709;DHT22;38606;52.986;6.980;2023-11-21T01:07:13;8.90;99.90
52709;DHT22;38606;52.986;6.980;2023-11-21T01:09:39;10.30;99.90
52709;DHT22;38606;52.986;6.980;2023-11-21T01:12:05;8.90;99.90
52709;DHT22;38606;52.986;6.980;2023-11-21T01:14:30;8.80;99.90
52709;DHT22;38606;52.986;6.980;2023-11-21T01:16:56;9.00;99.90
52709;DHT22;38606;52.986;6.980;2023-11-21T01:19:22;9.00;99.90
52709;DHT22;38606;52.986;6.980;2023-11-21T01:21:47;8.90;99.90
52709;DHT22;38606;52.986;6.980;2023-11-21T01:24:13;9.00;99.90
52709;DHT22;38606;52.986;6.980;2023-11-21T01:26:39;8.90;99.90
52709;DHT22;38606;52.986;6.980;2023-11-21T01:29:05;9.40;99.90
52709;DHT22;38606;52.986;6.980;2023-11-21T01:31:31;7.20;99.90
52709;DHT22;38606;52.986;6.980;2023-11-21T01:33:57;8.90;99.90
52709;DHT22;38606;52.986;6.980;2023-11-21T01:36:22;9.00;99.90
52709;DHT22;38606;52.986;6.980;2023-11-21T01:38:48;9.20;99.90
52709;DHT22;38606;52.986;6.980;2023-11-21T01:41:14;8.90;99.90
52709;DHT22;38606;52.986;6.980;2023-11-21T01:43:41;10.00;99.90
52709;DHT22;38606;52.986;6.980;2023-11-21T01:46:08;9.10;99.90
52709;DHT22;38606;52.986;6.980;2023-11-21T01:48:34;8.90;99.90
52709;DHT22;38606;52.986;6.980;2023-11-21T01:51:01;9.00;99.90
52709;DHT22;38606;52.986;6.980;2023-11-21T01:53:27;8.90;99.90
52709;DHT22;38606;52.986;6.980;2023-11-21T01:55:55;9.00;99.90
52709;DHT22;38606;52.986;6.980;2023-11-21T01:58:22;8.90;99.90
52709;DHT22;38606;52.986;6.980;2023-11-21T02:00:48;9.00;99.90
52709;DHT22;38606;52.986;6.980;2023-11-21T02:03:16;9.10;99.90
52709;DHT22;38606;52.986;6.980;2023-11-21T02:05:42;9.20;99.90
52709;DHT22;38606;52.986;6.980;2023-11-21T02:08:08;9.10;99.90
52709;DHT22;38606;52.986;6.980;2023-11-21T02:10:35;9.10;99.90
52709;DHT22;38606;52.986;6.980;2023-11-21T02:13:02;9.00;99.90
52709;DHT22;38606;52.986;6.980;2023-11-21T02:15:29;9.20;99.90
52709;DHT22;38606;52.986;6.980;2023-11-21T02:17:55;9.10;99.90
52709;DHT22;38606;52.986;6.980;2023-11-21T02:20:21;9.10;99.90
52709;DHT22;38606;52.986;6.980;2023-11-21T02:22:53;8.90;99.90
52709;DHT22;38606;52.986;6.980;2023-11-21T02:25:23;9.00;99.90
52709;DHT22;38606;52.986;6.980;2023-11-21T02:27:49;9.80;99.90
52709;DHT22;38606;52.986;6.980;2023-11-21T02:30:15;9.00;99.90
52709;DHT22;38606;52.986;6.980;2023-11-21T02:32:41;9.10;99.90
52709;DHT22;38606;52.986;6.980;2023-11-21T02:35:08;9.10;99.90
52709;DHT22;38606;52.986;6.980;2023-11-21T02:37:35;9.00;99.90
52709;DHT22;38606;52.986;6.980;2023-11-21T02:40:01;8.90;99.90
52709;DHT22;38606;52.986;6.980;2023-11-21T02:42:31;9.90;99.90
52709;DHT22;38606;52.986;6.980;2023-11-21T02:44:57;9.00;99.90
52709;DHT22;38606;52.986;6.980;2023-11-21T02:47:23;8.90;99.90
52709;DHT22;38606;52.986;6.980;2023-11-21T02:49:49;9.00;99.90
52709;DHT22;38606;52.986;6.980;2023-11-21T02:52:15;9.00;99.90
52709;DHT22;38606;52.986;6.980;2023-11-21T02:54:41;10.10;99.90
52709;DHT22;38606;52.986;6.980;2023-11-21T02:57:08;9.30;99.90
52709;DHT22;38606;52.986;6.980;2023-11-21T02:59:34;9.00;99.90
52709;DHT22;38606;52.986;6.980;2023-11-21T03:02:00;9.10;99.90
52709;DHT22;38606;52.986;6.980;2023-11-21T03:04:26;9.00;99.90
52709;DHT22;38606;52.986;6.980;2023-11-21T03:06:51;9.00;99.90
52709;DHT22;38606;52.986;6.980;2023-11-21T03:09:17;8.90;99.90
52709;DHT22;38606;52.986;6.980;2023-11-21T03:11:43;9.20;99.90
52709;DHT22;38606;52.986;6.980;2023-11-21T03:14:09;9.00;99.90
52709;DHT22;38606;52.986;6.980;2023-11-21T03:16:35;9.20;99.90
52709;DHT22;38606;52.986;6.980;2023-11-21T03:19:01;9.30;99.90
52709;DHT22;38606;52.986;6.980;2023-11-21T03:21:26;9.10;99.90
52709;DHT22;38606;52.986;6.980;2023-11-21T03:23:52;9.20;99.90
52709;DHT22;38606;52.986;6.980;2023-11-21T03:26:18;9.20;99.90
52709;DHT22;38606;52.986;6.980;2023-11-21T03:28:44;9.00;99.90
52709;DHT22;38606;52.986;6.980;2023-11-21T03:31:10;9.10;99.90
52709;DHT22;38606;52.986;6.980;2023-11-21T03:33:36;9.30;99.90
52709;DHT22;38606;52.986;6.980;2023-11-21T03:36:02;9.20;99.90
52709;DHT22;38606;52.986;6.980;2023-11-21T03:38:29;9.10;99.90
52709;DHT22;38606;52.986;6.980;2023-11-21T03:40:55;9.10;99.90
52709;DHT22;38606;52.986;6.980;2023-11-21T03:43:20;8.90;99.90
52709;DHT22;38606;52.986;6.980;2023-11-21T03:45:46;9.20;99.90
52709;DHT22;38606;52.986;6.980;2023-11-21T03:48:13;9.20;99.90
52709;DHT22;38606;52.986;6.980;2023-11-21T03:50:38;9.30;99.90
52709;DHT22;38606;52.986;6.980;2023-11-21T03:53:04;9.30;99.90
52709;DHT22;38606;52.986;6.980;2023-11-21T03:55:30;9.30;99.90
52709;DHT22;38606;52.986;6.980;2023-11-21T03:57:57;9.20;99.90
52709;DHT22;38606;52.986;6.980;2023-11-21T04:00:24;9.30;99.90
52709;DHT22;38606;52.986;6.980;2023-11-21T04:02:51;9.00;99.90
52709;DHT22;38606;52.986;6.980;2023-11-21T04:05:17;9.30;99.90
52709;DHT22;38606;52.986;6.980;2023-11-21T04:07:43;9.10;99.90
52709;DHT22;38606;52.986;6.980;2023-11-21T04:10:09;9.20;99.90
52709;DHT22;38606;52.986;6.980;2023-11-21T04:12:38;9.20;99.90
52709;DHT22;38606;52.986;6.980;2023-11-21T04:15:04;8.90;99.90
52709;DHT22;38606;52.986;6.980;2023-11-21T04:17:29;9.10;99.90
52709;DHT22;38606;52.986;6.980;2023-11-21T04:19:56;9.00;99.90
52709;DHT22;38606;52.986;6.980;2023-11-21T04:22:22;9.10;99.90
52709;DHT22;38606;52.986;6.980;2023-11-21T04:24:47;9.20;99.90
52709;DHT22;38606;52.986;6.980;2023-11-21T04:27:14;8.90;99.90
52709;DHT22;38606;52.986;6.980;2023-11-21T04:29:40;9.10;99.90
52709;DHT22;38606;52.986;6.980;2023-11-21T04:32:07;9.00;99.90
52709;DHT22;38606;52.986;6.980;2023-11-21T04:34:33;9.10;99.90
52709;DHT22;38606;52.986;6.980;2023-11-21T04:37:00;9.10;99.90
52709;DHT22;38606;52.986;6.980;2023-11-21T04:39:26;9.20;99.90
52709;DHT22;38606;52.986;6.980;2023-11-21T04:41:52;9.20;99.90
52709;DHT22;38606;52.986;6.980;2023-11-21T04:44:17;9.00;99.90
52709;DHT22;38606;52.986;6.980;2023-11-21T04:46:43;9.00;99.90
52709;DHT22;38606;52.986;6.980;2023-11-21T04:49:09;9.30;99.90
52709;DHT22;38606;52.986;6.980;2023-11-21T04:51:36;9.20;99.90
52709;DHT22;38606;52.986;6.980;2023-11-21T04:54:02;9.10;99.90
52709;DHT22;38606;52.986;6.980;2023-11-21T04:56:28;9.10;99.90
52709;DHT22;38606;52.986;6.980;2023-11-21T04:58:55;9.20;99.90
52709;DHT22;38606;52.986;6.980;2023-11-21T05:01:20;9.00;99.90
52709;DHT22;38606;52.986;6.980;2023-11-21T05:03:46;8.90;99.90
52709;DHT22;38606;52.986;6.980;2023-11-21T05:06:12;9.00;99.90
52709;DHT22;38606;52.986;6.980;2023-11-21T05:08:39;9.20;99.90
52709;DHT22;38606;52.986;6.980;2023-11-21T05:11:05;9.10;99.90
52709;DHT22;38606;52.986;6.980;2023-11-21T05:13:34;9.20;99.90
52709;DHT22;38606;52.986;6.980;2023-11-21T05:16:00;9.30;99.90
52709;DHT22;38606;52.986;6.980;2023-11-21T05:18:25;9.00;99.90
52709;DHT22;38606;52.986;6.980;2023-11-21T05:20:55;10.00;99.90
52709;DHT22;38606;52.986;6.980;2023-11-21T05:23:22;9.20;99.90
52709;DHT22;38606;52.986;6.980;2023-11-21T05:25:47;9.00;99.90
52709;DHT22;38606;52.986;6.980;2023-11-21T05:28:13;9.00;99.90
52709;DHT22;38606;52.986;6.980;2023-11-21T05:30:39;9.20;99.90
52709;DHT22;38606;52.986;6.980;2023-11-21T05:33:05;9.10;99.90
52709;DHT22;38606;52.986;6.980;2023-11-21T05:35:31;9.20;99.90
52709;DHT22;38606;52.986;6.980;2023-11-21T05:37:57;9.10;99.90
52709;DHT22;38606;52.986;6.980;2023-11-21T05:40:22;9.10;99.90
52709;DHT22;38606;52.986;6.980;2023-11-21T05:42:48;9.00;99.90
52709;DHT22;38606;52.986;6.980;2023-11-21T05:45:14;9.00;99.90
52709;DHT22;38606;52.986;6.980;2023-11-21T05:47:42;9.20;99.90
52709;DHT22;38606;52.986;6.980;2023-11-21T05:50:13;9.20;99.90
52709;DHT22;38606;52.986;6.980;2023-11-21T05:52:44;9.10;99.90
52709;DHT22;38606;52.986;6.980;2023-11-21T05:55:10;9.20;99.90
52709;DHT22;38606;52.986;6.980;2023-11-21T05:57:37;9.00;99.90
52709;DHT22;38606;52.986;6.980;2023-11-21T06:00:08;9.10;99.90
52709;DHT22;38606;52.986;6.980;2023-11-21T06:02:43;9.40;99.90
52709;DHT22;38606;52.986;6.980;2023-11-21T06:05:10;9.20;99.90
52709;DHT22;38606;52.986;6.980;2023-11-21T06:07:37;9.20;99.90
52709;DHT22;38606;52.986;6.980;2023-11-21T06:10:04;8.90;99.90
52709;DHT22;38606;52.986;6.980;2023-11-21T06:12:38;9.10;99.90
52709;DHT22;38606;52.986;6.980;2023-11-21T06:15:06;9.10;99.90
52709;DHT22;38606;52.986;6.980;2023-11-21T06:17:34;9.10;99.90
52709;DHT22;38606;52.986;6.980;2023-11-21T06:20:06;9.10;99.90
52709;DHT22;38606;52.986;6.980;2023-11-21T06:22:36;9.20;99.90
52709;DHT22;38606;52.986;6.980;2023-11-21T06:25:01;8.90;99.90
52709;DHT22;38606;52.986;6.980;2023-11-21T06:27:28;9.00;99.90
52709;DHT22;38606;52.986;6.980;2023-11-21T06:29:55;9.20;99.90
52709;DHT22;38606;52.986;6.980;2023-11-21T06:32:20;9.10;99.90
52709;DHT22;38606;52.986;6.980;2023-11-21T06:34:48;9.00;99.90
52709;DHT22;38606;52.986;6.980;2023-11-21T06:37:15;9.20;99.90
52709;DHT22;38606;52.986;6.980;2023-11-21T06:39:41;9.10;99.90
52709;DHT22;38606;52.986;6.980;2023-11-21T06:42:07;9.00;99.90
52709;DHT22;38606;52.986;6.980;2023-11-21T06:44:32;9.20;99.90
52709;DHT22;38606;52.986;6.980;2023-11-21T06:46:59;9.20;99.90
52709;DHT22;38606;52.986;6.980;2023-11-21T06:49:25;9.00;99.90
52709;DHT22;38606;52.986;6.980;2023-11-21T06:51:51;9.10;99.90
52709;DHT22;38606;52.986;6.980;2023-11-21T06:54:18;9.40;99.90
52709;DHT22;38606;52.986;6.980;2023-11-21T06:56:44;9.20;99.90
52709;DHT22;38606;52.986;6.980;2023-11-21T06:59:09;9.10;99.90
52709;DHT22;38606;52.986;6.980;2023-11-21T07:01:36;9.20;99.90
52709;DHT22;38606;52.986;6.980;2023-11-21T07:04:05;9.20;99.90
52709;DHT22;38606;52.986;6.980;2023-11-21T07:06:32;9.10;99.90
52709;DHT22;38606;52.986;6.980;2023-11-21T07:08:57;9.20;99.90
52709;DHT22;38606;52.986;6.980;2023-11-21T07:11:24;9.20;99.90
52709;DHT22;38606;52.986;6.980;2023-11-21T07:13:50;9.20;99.90
52709;DHT22;38606;52.986;6.980;2023-11-21T07:16:18;9.20;99.90
52709;DHT22;38606;52.986;6.980;2023-11-21T07:18:44;9.40;99.90
52709;DHT22;38606;52.986;6.980;2023-11-21T07:21:10;9.50;99.90
52709;DHT22;38606;52.986;6.980;2023-11-21T07:23:38;9.30;99.90
52709;DHT22;38606;52.986;6.980;2023-11-21T07:26:04;9.30;99.90
52709;DHT22;38606;52.986;6.980;2023-11-21T07:28:34;9.10;99.90
52709;DHT22;38606;52.986;6.980;2023-11-21T07:31:01;9.30;99.90
52709;DHT22;38606;52.986;6.980;2023-11-21T07:33:27;9.00;99.90
52709;DHT22;38606;52.986;6.980;2023-11-21T07:35:52;9.10;99.90
52709;DHT22;38606;52.986;6.980;2023-11-21T07:38:18;9.20;99.90
52709;DHT22;38606;52.986;6.980;2023-11-21T07:40:44;9.10;99.90
52709;DHT22;38606;52.986;6.980;2023-11-21T07:43:10;9.20;99.90
52709;DHT22;38606;52.986;6.980;2023-11-21T07:45:36;9.20;99.90
52709;DHT22;38606;52.986;6.980;2023-11-21T07:48:02;9.00;99.90
52709;DHT22;38606;52.986;6.980;2023-11-21T07:50:29;9.20;99.90
52709;DHT22;38606;52.986;6.980;2023-11-21T07:52:55;8.90;99.90
52709;DHT22;38606;52.986;6.980;2023-11-21T07:55:21;8.90;99.90
52709;DHT22;38606;52.986;6.980;2023-11-21T07:57:46;10.30;99.90
52709;DHT22;38606;52.986;6.980;2023-11-21T08:00:13;9.20;99.90
52709;DHT22;38606;52.986;6.980;2023-11-21T08:02:40;8.60;99.90
52709;DHT22;38606;52.986;6.980;2023-11-21T08:05:12;8.70;99.90
52709;DHT22;38606;52.986;6.980;2023-11-21T08:07:38;9.50;99.90
52709;DHT22;38606;52.986;6.980;2023-11-21T08:10:04;8.90;99.90
52709;DHT22;38606;52.986;6.980;2023-11-21T08:12:30;9.00;99.90
52709;DHT22;38606;52.986;6.980;2023-11-21T08:14:56;9.10;99.90
52709;DHT22;38606;52.986;6.980;2023-11-21T08:17:22;8.90;99.90
52709;DHT22;38606;52.986;6.980;2023-11-21T08:19:49;8.90;99.90
52709;DHT22;38606;52.986;6.980;2023-11-21T08:22:17;8.90;99.90
52709;DHT22;38606;52.986;6.980;2023-11-21T08:24:44;8.70;99.90
52709;DHT22;38606;52.986;6.980;2023-11-21T08:27:10;8.70;99.90
52709;DHT22;38606;52.986;6.980;2023-11-21T08:29:35;8.80;99.90
52709;DHT22;38606;52.986;6.980;2023-11-21T08:32:04;8.70;99.90
52709;DHT22;38606;52.986;6.980;2023-11-21T08:34:30;8.70;99.90
52709;DHT22;38606;52.986;6.980;2023-11-21T08:36:56;8.60;99.90
52709;DHT22;38606;52.986;6.980;2023-11-21T08:39:22;8.60;99.90
52709;DHT22;38606;52.986;6.980;2023-11-21T08:41:50;8.90;99.90
52709;DHT22;38606;52.986;6.980;2023-11-21T08:44:16;9.10;99.90
52709;DHT22;38606;52.986;6.980;2023-11-21T08:46:44;8.80;99.90
52709;DHT22;38606;52.986;6.980;2023-11-21T08:49:11;8.70;99.90
52709;DHT22;38606;52.986;6.980;2023-11-21T08:51:38;8.60;99.90
52709;DHT22;38606;52.986;6.980;2023-11-21T08:54:04;8.90;99.90
52709;DHT22;38606;52.986;6.980;2023-11-21T08:56:34;8.80;99.90
52709;DHT22;38606;52.986;6.980;2023-11-21T08:58:59;8.80;99.90
52709;DHT22;38606;52.986;6.980;2023-11-21T09:01:31;8.80;99.90
52709;DHT22;38606;52.986;6.980;2023-11-21T09:03:58;8.60;99.90
52709;DHT22;38606;52.986;6.980;2023-11-21T09:06:24;8.60;99.90
52709;DHT22;38606;52.986;6.980;2023-11-21T09:08:50;8.70;99.90
52709;DHT22;38606;52.986;6.980;2023-11-21T09:11:16;8.80;99.90
52709;DHT22;38606;52.986;6.980;2023-11-21T09:13:42;8.80;99.90
52709;DHT22;38606;52.986;6.980;2023-11-21T09:16:08;8.50;99.90
52709;DHT22;38606;52.986;6.980;2023-11-21T09:18:34;8.60;99.90
52709;DHT22;38606;52.986;6.980;2023-11-21T09:20:59;8.40;99.90
52709;DHT22;38606;52.986;6.980;2023-11-21T09:23:25;8.70;99.90
52709;DHT22;38606;52.986;6.980;2023-11-21T09:25:51;8.70;99.90
52709;DHT22;38606;52.986;6.980;2023-11-21T09:28:17;8.50;99.90
52709;DHT22;38606;52.986;6.980;2023-11-21T09:30:43;8.80;99.90
52709;DHT22;38606;52.986;6.980;2023-11-21T09:33:09;8.70;99.90
52709;DHT22;38606;52.986;6.980;2023-11-21T09:35:39;8.50;99.90
52709;DHT22;38606;52.986;6.980;2023-11-21T09:38:04;8.50;99.90
52709;DHT22;38606;52.986;6.980;2023-11-21T09:40:37;7.10;99.90
52709;DHT22;38606;52.986;6.980;2023-11-21T09:43:08;8.50;99.90
52709;DHT22;38606;52.986;6.980;2023-11-21T09:45:47;8.80;99.90
52709;DHT22;38606;52.986;6.980;2023-11-21T09:48:16;8.40;99.90
52709;DHT22;38606;52.986;6.980;2023-11-21T09:50:43;8.80;99.90
52709;DHT22;38606;52.986;6.980;2023-11-21T09:53:20;8.30;99.90
52709;DHT22;38606;52.986;6.980;2023-11-21T09:55:48;8.80;99.90
52709;DHT22;38606;52.986;6.980;2023-11-21T09:58:16;8.50;99.90
52709;DHT22;38606;52.986;6.980;2023-11-21T10:00:44;8.50;99.90
52709;DHT22;38606;52.986;6.980;2023-11-21T10:03:11;8.70;99.90
52709;DHT22;38606;52.986;6.980;2023-11-21T10:05:37;8.50;99.90
52709;DHT22;38606;52.986;6.980;2023-11-21T10:08:07;8.50;99.90
52709;DHT22;38606;52.986;6.980;2023-11-21T10:10:33;8.60;99.90
52709;DHT22;38606;52.986;6.980;2023-11-21T10:13:03;8.60;99.90
52709;DHT22;38606;52.986;6.980;2023-11-21T10:15:33;8.40;99.90
52709;DHT22;38606;52.986;6.980;2023-11-21T10:18:02;8.60;99.90
52709;DHT22;38606;52.986;6.980;2023-11-21T10:20:28;8.60;99.90
52709;DHT22;38606;52.986;6.980;2023-11-21T10:22:55;8.30;99.90
52709;DHT22;38606;52.986;6.980;2023-11-21T10:25:22;8.60;99.90
52709;DHT22;38606;52.986;6.980;2023-11-21T10:27:49;8.50;99.90
52709;DHT22;38606;52.986;6.980;2023-11-21T10:30:17;8.70;99.90
52709;DHT22;38606;52.986;6.980;2023-11-21T10:32:43;8.60;99.90
52709;DHT22;38606;52.986;6.980;2023-11-21T10:35:09;8.80;99.90
52709;DHT22;38606;52.986;6.980;2023-11-21T10:37:42;10.80;99.90
52709;DHT22;38606;52.986;6.980;2023-11-21T10:40:11;8.70;99.90
52709;DHT22;38606;52.986;6.980;2023-11-21T10:42:41;8.70;99.90
52709;DHT22;38606;52.986;6.980;2023-11-21T10:45:10;8.70;99.90
52709;DHT22;38606;52.986;6.980;2023-11-21T10:47:43;8.80;99.90
52709;DHT22;38606;52.986;6.980;2023-11-21T10:50:09;8.70;99.90
52709;DHT22;38606;52.986;6.980;2023-11-21T10:52:37;8.80;99.90
52709;DHT22;38606;52.986;6.980;2023-11-21T10:55:25;8.80;99.90
52709;DHT22;38606;52.986;6.980;2023-11-21T10:57:53;9.00;99.90
52709;DHT22;38606;52.986;6.980;2023-11-21T11:00:19;8.80;99.90
52709;DHT22;38606;52.986;6.980;2023-11-21T11:02:53;9.10;99.90
52709;DHT22;38606;52.986;6.980;2023-11-21T11:05:23;8.90;99.90
52709;DHT22;38606;52.986;6.980;2023-11-21T11:08:00;8.80;99.90
52709;DHT22;38606;52.986;6.980;2023-11-21T11:10:29;8.90;99.90
52709;DHT22;38606;52.986;6.980;2023-11-21T11:12:56;8.70;99.90
52709;DHT22;38606;52.986;6.980;2023-11-21T11:15:24;8.90;99.90
52709;DHT22;38606;52.986;6.980;2023-11-21T11:17:50;8.80;99.90
52709;DHT22;38606;52.986;6.980;2023-11-21T11:20:17;9.80;99.90
52709;DHT22;38606;52.986;6.980;2023-11-21T11:28:27;9.00;99.90
52709;DHT22;38606;52.986;6.980;2023-11-21T11:37:01;9.10;99.90
52709;DHT22;38606;52.986;6.980;2023-11-21T11:39:34;9.00;99.90
52709;DHT22;38606;52.986;6.980;2023-11-21T11:42:03;9.00;99.90
52709;DHT22;38606;52.986;6.980;2023-11-21T11:47:33;8.70;99.90
52709;DHT22;38606;52.986;6.980;2023-11-21T11:50:06;8.70;99.90
52709;DHT22;38606;52.986;6.980;2023-11-21T11:55:00;9.10;99.90
52709;DHT22;38606;52.986;6.980;2023-11-21T11:57:27;8.90;99.90
52709;DHT22;38606;52.986;6.980;2023-11-21T12:02:52;8.90;99.90
52709;DHT22;38606;52.986;6.980;2023-11-21T12:05:19;8.90;99.90
52709;DHT22;38606;52.986;6.980;2023-11-21T12:07:46;8.80;99.90
52709;DHT22;38606;52.986;6.980;2023-11-21T12:10:14;9.00;99.90
52709;DHT22;38606;52.986;6.980;2023-11-21T12:12:48;9.00;99.90
52709;DHT22;38606;52.986;6.980;2023-11-21T12:15:14;8.70;99.90
52709;DHT22;38606;52.986;6.980;2023-11-21T12:17:42;9.10;99.90
52709;DHT22;38606;52.986;6.980;2023-11-21T12:20:09;8.90;99.90
52709;DHT22;38606;52.986;6.980;2023-11-21T12:22:53;8.90;99.90
52709;DHT22;38606;52.986;6.980;2023-11-21T12:25:24;8.80;99.90
52709;DHT22;38606;52.986;6.980;2023-11-21T12:27:59;8.80;99.90
52709;DHT22;38606;52.986;6.980;2023-11-21T12:30:29;9.10;99.90
52709;DHT22;38606;52.986;6.980;2023-11-21T12:33:02;9.00;99.90
52709;DHT22;38606;52.986;6.980;2023-11-21T12:35:30;8.80;99.90
52709;DHT22;38606;52.986;6.980;2023-11-21T12:37:56;9.00;99.90
52709;DHT22;38606;52.986;6.980;2023-11-21T12:40:25;8.90;99.90
52709;DHT22;38606;52.986;6.980;2023-11-21T12:42:53;8.90;99.90
52709;DHT22;38606;52.986;6.980;2023-11-21T12:45:29;8.80;99.90
52709;DHT22;38606;52.986;6.980;2023-11-21T12:48:01;8.90;99.90
52709;DHT22;38606;52.986;6.980;2023-11-21T12:50:30;8.90;99.90
52709;DHT22;38606;52.986;6.980;2023-11-21T12:53:10;9.30;99.90
52709;DHT22;38606;52.986;6.980;2023-11-21T12:55:39;8.80;99.90
52709;DHT22;38606;52.986;6.980;2023-11-21T12:58:07;8.80;99.90
52709;DHT22;38606;52.986;6.980;2023-11-21T13:00:38;9.00;99.90
52709;DHT22;38606;52.986;6.980;2023-11-21T13:03:06;9.00;99.90
52709;DHT22;38606;52.986;6.980;2023-11-21T13:05:36;8.80;99.90
52709;DHT22;38606;52.986;6.980;2023-11-21T13:08:08;8.90;99.90
52709;DHT22;38606;52.986;6.980;2023-11-21T13:10:43;8.90;99.90
52709;DHT22;38606;52.986;6.980;2023-11-21T13:13:11;8.90;99.90
52709;DHT22;38606;52.986;6.980;2023-11-21T13:15:50;8.90;99.90
52709;DHT22;38606;52.986;6.980;2023-11-21T13:18:16;8.90;99.90
52709;DHT22;38606;52.986;6.980;2023-11-21T13:20:43;9.10;99.90
52709;DHT22;38606;52.986;6.980;2023-11-21T13:23:10;9.00;99.90
52709;DHT22;38606;52.986;6.980;2023-11-21T13:25:38;8.90;99.90
52709;DHT22;38606;52.986;6.980;2023-11-21T13:28:07;8.90;99.90
52709;DHT22;38606;52.986;6.980;2023-11-21T13:30:33;8.90;99.90
52709;DHT22;38606;52.986;6.980;2023-11-21T13:33:03;9.20;99.90
52709;DHT22;38606;52.986;6.980;2023-11-21T13:35:33;8.90;99.90
52709;DHT22;38606;52.986;6.980;2023-11-21T13:38:14;9.20;99.90
52709;DHT22;38606;52.986;6.980;2023-11-21T13:40:41;9.00;99.90
52709;DHT22;38606;52.986;6.980;2023-11-21T13:43:12;8.90;99.90
52709;DHT22;38606;52.986;6.980;2023-11-21T13:45:44;8.90;99.90
52709;DHT22;38606;52.986;6.980;2023-11-21T13:48:11;9.10;99.90
52709;DHT22;38606;52.986;6.980;2023-11-21T13:50:46;8.80;99.90
52709;DHT22;38606;52.986;6.980;2023-11-21T13:53:25;9.00;99.90
52709;DHT22;38606;52.986;6.980;2023-11-21T13:55:51;8.90;99.90
52709;DHT22;38606;52.986;6.980;2023-11-21T13:58:23;8.90;99.90
52709;DHT22;38606;52.986;6.980;2023-11-21T14:00:58;9.00;99.90
52709;DHT22;38606;52.986;6.980;2023-11-21T14:03:24;8.80;99.90
52709;DHT22;38606;52.986;6.980;2023-11-21T14:05:58;9.70;99.90
52709;DHT22;38606;52.986;6.980;2023-11-21T14:08:26;8.80;99.90
52709;DHT22;38606;52.986;6.980;2023-11-21T14:10:57;8.90;99.90
52709;DHT22;38606;52.986;6.980;2023-11-21T14:13:26;8.70;99.90
52709;DHT22;38606;52.986;6.980;2023-11-21T14:15:53;8.70;99.90
52709;DHT22;38606;52.986;6.980;2023-11-21T14:18:27;8.80;99.90
52709;DHT22;38606;52.986;6.980;2023-11-21T14:20:59;8.60;99.90
52709;DHT22;38606;52.986;6.980;2023-11-21T14:23:25;8.50;99.90
52709;DHT22;38606;52.986;6.980;2023-11-21T14:25:51;8.30;99.90
52709;DHT22;38606;52.986;6.980;2023-11-21T14:28:17;8.40;99.90
52709;DHT22;38606;52.986;6.980;2023-11-21T14:30:47;8.20;99.90
52709;DHT22;38606;52.986;6.980;2023-11-21T14:33:13;8.40;99.90
52709;DHT22;38606;52.986;6.980;2023-11-21T14:35:42;8.20;99.90
52709;DHT22;38606;52.986;6.980;2023-11-21T14:38:09;8.30;99.90
52709;DHT22;38606;52.986;6.980;2023-11-21T14:40:36;8.20;99.90
52709;DHT22;38606;52.986;6.980;2023-11-21T14:43:02;8.20;99.90
52709;DHT22;38606;52.986;6.980;2023-11-21T14:45:32;8.80;99.90
52709;DHT22;38606;52.986;6.980;2023-11-21T14:47:59;8.10;99.90
52709;DHT22;38606;52.986;6.980;2023-11-21T14:50:32;8.20;99.90
52709;DHT22;38606;52.986;6.980;2023-11-21T14:53:06;8.30;99.90
52709;DHT22;38606;52.986;6.980;2023-11-21T14:55:33;8.20;99.90
52709;DHT22;38606;52.986;6.980;2023-11-21T14:58:19;8.10;99.90
52709;DHT22;38606;52.986;6.980;2023-11-21T15:00:58;8.30;99.90
52709;DHT22;38606;52.986;6.980;2023-11-21T15:03:25;7.90;99.90
52709;DHT22;38606;52.986;6.980;2023-11-21T15:05:57;8.20;99.90
52709;DHT22;38606;52.986;6.980;2023-11-21T15:08:23;8.10;99.90
52709;DHT22;38606;52.986;6.980;2023-11-21T15:10:56;8.00;99.90
52709;DHT22;38606;52.986;6.980;2023-11-21T15:13:22;8.00;99.90
52709;DHT22;38606;52.986;6.980;2023-11-21T15:15:53;8.20;99.90
52709;DHT22;38606;52.986;6.980;2023-11-21T15:18:20;8.30;99.90
52709;DHT22;38606;52.986;6.980;2023-11-21T15:20:46;8.00;99.90
52709;DHT22;38606;52.986;6.980;2023-11-21T15:23:12;8.30;99.90
52709;DHT22;38606;52.986;6.980;2023-11-21T15:25:38;7.30;99.90
52709;DHT22;38606;52.986;6.980;2023-11-21T15:28:04;8.10;99.90
52709;DHT22;38606;52.986;6.980;2023-11-21T15:30:31;8.10;99.90
52709;DHT22;38606;52.986;6.980;2023-11-21T15:33:00;8.00;99.90
52709;DHT22;38606;52.986;6.980;2023-11-21T15:35:26;7.70;99.90
52709;DHT22;38606;52.986;6.980;2023-11-21T15:37:54;8.00;99.90
52709;DHT22;38606;52.986;6.980;2023-11-21T15:40:23;8.10;99.90
52709;DHT22;38606;52.986;6.980;2023-11-21T15:42:49;7.70;99.90
52709;DHT22;38606;52.986;6.980;2023-11-21T15:45:15;7.80;99.90
52709;DHT22;38606;52.986;6.980;2023-11-21T15:47:44;7.60;99.90
52709;DHT22;38606;52.986;6.980;2023-11-21T15:50:10;7.80;99.90
52709;DHT22;38606;52.986;6.980;2023-11-21T15:52:36;7.50;99.90
52709;DHT22;38606;52.986;6.980;2023-11-21T15:55:02;7.50;99.90
52709;DHT22;38606;52.986;6.980;2023-11-21T15:57:28;7.40;99.90
52709;DHT22;38606;52.986;6.980;2023-11-21T15:59:54;7.40;99.90
52709;DHT22;38606;52.986;6.980;2023-11-21T16:02:20;7.40;99.90
52709;DHT22;38606;52.986;6.980;2023-11-21T16:04:46;7.40;99.90
52709;DHT22;38606;52.986;6.980;2023-11-21T16:07:12;7.20;99.90